createdAt,value
2023-01-23T00:00:00.999Z,86.92
2023-01-23T00:02:30.648Z,86.95
2023-01-23T00:05:00.241Z,87.18
2023-01-23T00:07:30.222Z,86.85
2023-01-23T00:09:59.791Z,87.10
2023-01-23T00:12:29.367Z,87.12
2023-01-23T00:15:01.624Z,86.95
2023-01-23T00:17:31.736Z,86.82
2023-01-23T00:20:01.393Z,87.05
2023-01-23T00:22:31.051Z,86.86
2023-01-23T00:25:00.660Z,86.85
2023-01-23T00:27:30.627Z,86.76
2023-01-23T00:30:03.569Z,86.80
2023-01-23T00:32:33.143Z,86.96
2023-01-23T00:35:05.663Z,86.97
2023-01-23T00:37:35.225Z,86.94
2023-01-23T00:40:04.932Z,87.02
2023-01-23T00:42:34.478Z,87.02
2023-01-23T00:45:07.793Z,86.90
2023-01-23T00:47:37.380Z,86.68
2023-01-23T00:50:07.901Z,86.77
2023-01-23T00:52:37.531Z,86.85
2023-01-23T00:55:08.900Z,87.06
2023-01-23T00:57:38.483Z,86.84
2023-01-23T01:00:12.365Z,86.86
2023-01-23T01:02:42.320Z,86.98
2023-01-23T01:05:12.886Z,86.93
2023-01-23T01:07:42.480Z,86.94
2023-01-23T01:10:13.838Z,86.94
2023-01-23T01:12:43.483Z,87.16
2023-01-23T01:15:17.085Z,87.18
2023-01-23T01:17:46.673Z,87.60
2023-01-23T01:20:17.124Z,87.60
2023-01-23T01:22:46.792Z,87.78
2023-01-23T01:25:16.619Z,87.72
2023-01-23T01:27:46.201Z,87.63
2023-01-23T01:30:22.131Z,87.58
2023-01-23T01:32:51.886Z,87.69
2023-01-23T01:35:21.608Z,87.75
2023-01-23T01:37:51.207Z,87.70
2023-01-23T01:40:22.511Z,87.65
2023-01-23T01:42:54.864Z,87.49
2023-01-23T01:45:54.295Z,87.45
2023-01-23T01:48:28.446Z,87.51
2023-01-23T01:50:57.818Z,87.71
2023-01-23T01:53:29.598Z,87.22
2023-01-23T01:55:59.959Z,87.44
2023-01-23T01:58:30.880Z,87.43
2023-01-23T02:01:00.539Z,87.31
2023-01-23T02:03:32.908Z,87.56
2023-01-23T02:06:02.644Z,87.47
2023-01-23T02:08:37.200Z,87.53
2023-01-23T02:11:07.102Z,87.33
2023-01-23T02:13:39.403Z,87.53
2023-01-23T02:16:11.003Z,87.44
2023-01-23T02:18:47.993Z,87.73
2023-01-23T02:21:19.902Z,87.75
2023-01-23T02:24:01.743Z,87.82
2023-01-23T02:26:37.324Z,87.72
2023-01-23T02:29:08.167Z,87.81
2023-01-23T02:31:47.407Z,87.87
2023-01-23T02:34:17.495Z,87.77
2023-01-23T02:36:50.492Z,87.92
2023-01-23T02:39:23.033Z,88.03
2023-01-23T02:41:58.923Z,87.88
2023-01-23T02:44:42.829Z,88.10
2023-01-23T02:47:13.090Z,87.69
2023-01-23T02:49:45.005Z,88.01
2023-01-23T02:52:14.678Z,88.10
2023-01-23T02:54:44.288Z,88.26
2023-01-23T02:57:16.457Z,88.44
2023-01-23T02:59:58.525Z,88.36
2023-01-23T03:02:28.496Z,88.48
2023-01-23T03:04:58.131Z,88.80
2023-01-23T03:07:30.718Z,88.92
2023-01-23T03:10:00.295Z,88.87
2023-01-23T03:12:32.587Z,89.21
2023-01-23T03:15:02.688Z,89.27
2023-01-23T03:17:32.596Z,89.64
2023-01-23T03:20:03.348Z,89.58
2023-01-23T03:22:33.582Z,89.86
2023-01-23T03:25:03.173Z,90.27
2023-01-23T03:27:37.402Z,90.14
2023-01-23T03:30:13.806Z,90.40
2023-01-23T03:32:43.564Z,90.34
2023-01-23T03:35:16.682Z,90.20
2023-01-23T03:37:47.298Z,90.15
2023-01-23T03:40:31.686Z,90.39
2023-01-23T03:43:03.928Z,90.38
2023-01-23T03:45:33.943Z,90.46
2023-01-23T03:48:04.071Z,90.51
2023-01-23T03:50:34.068Z,90.43
2023-01-23T03:53:03.670Z,90.32
2023-01-23T03:55:33.800Z,90.47
2023-01-23T03:58:06.411Z,90.78
2023-01-23T04:00:37.008Z,90.59
2023-01-23T04:03:09.252Z,90.79
2023-01-23T04:05:40.795Z,90.66
2023-01-23T04:08:10.342Z,90.33
2023-01-23T04:10:40.229Z,90.19
2023-01-23T04:13:18.883Z,89.93
2023-01-23T04:15:48.620Z,90.08
2023-01-23T04:18:18.896Z,90.10
2023-01-23T04:20:48.484Z,89.94
2023-01-23T04:23:18.076Z,90.23
2023-01-23T04:25:48.290Z,90.19
2023-01-23T04:28:21.553Z,89.83
2023-01-23T04:30:52.349Z,89.89
2023-01-23T04:33:28.561Z,89.66
2023-01-23T04:36:01.702Z,89.52
2023-01-23T04:38:33.980Z,89.53
2023-01-23T04:41:28.125Z,89.44
2023-01-23T04:44:23.301Z,89.29
2023-01-23T04:47:21.828Z,89.15
2023-01-23T04:49:52.427Z,89.61
2023-01-23T04:52:22.208Z,89.66
2023-01-23T04:54:59.312Z,89.82
2023-01-23T04:57:29.351Z,89.87
2023-01-23T05:00:11.465Z,89.94
2023-01-23T05:02:41.189Z,89.89
2023-01-23T05:05:12.695Z,90.30
2023-01-23T05:07:42.323Z,90.10
2023-01-23T05:10:17.033Z,90.34
2023-01-23T05:12:46.857Z,90.41
2023-01-23T05:15:21.223Z,90.48
2023-01-23T05:17:53.075Z,90.56
2023-01-23T05:20:23.700Z,90.30
2023-01-23T05:22:58.391Z,90.17
2023-01-23T05:25:36.074Z,90.43
2023-01-23T05:28:07.020Z,90.60
2023-01-23T05:30:39.954Z,90.52
2023-01-23T05:33:20.776Z,90.46
2023-01-23T05:35:50.654Z,90.35
2023-01-23T05:38:20.292Z,90.44
2023-01-23T05:40:49.906Z,90.42
2023-01-23T05:43:51.827Z,90.54
2023-01-23T05:46:26.711Z,90.61
2023-01-23T05:48:56.367Z,90.68
2023-01-23T05:51:31.658Z,90.54
2023-01-23T05:54:02.892Z,90.55
2023-01-23T05:56:33.284Z,90.44
2023-01-23T05:59:22.021Z,90.52
2023-01-23T06:02:05.001Z,90.68
2023-01-23T06:05:00.232Z,90.85
2023-01-23T06:07:43.258Z,90.78
2023-01-23T06:10:13.491Z,90.95
2023-01-23T06:12:44.854Z,90.61
2023-01-23T06:15:14.912Z,90.85
2023-01-23T06:17:47.201Z,90.83
2023-01-23T06:20:17.222Z,91.14
2023-01-23T06:22:48.835Z,90.98
2023-01-23T06:25:20.713Z,90.75
2023-01-23T06:27:50.637Z,90.77
2023-01-23T06:30:21.230Z,91.02
2023-01-23T06:32:54.921Z,91.10
2023-01-23T06:35:30.861Z,91.12
2023-01-23T06:38:00.497Z,91.20
2023-01-23T06:40:31.107Z,91.13
2023-01-23T06:43:16.683Z,91.11
2023-01-23T06:45:47.027Z,91.17
2023-01-23T06:48:20.927Z,90.78
2023-01-23T06:50:51.226Z,90.72
2023-01-23T06:53:21.451Z,90.54
2023-01-23T06:55:53.589Z,90.46
2023-01-23T06:58:23.200Z,90.27
2023-01-23T07:00:52.796Z,90.24
2023-01-23T07:03:48.145Z,89.96
2023-01-23T07:06:18.389Z,89.90
2023-01-23T07:08:47.978Z,89.84
2023-01-23T07:11:17.610Z,89.87
2023-01-23T07:13:47.235Z,89.57
2023-01-23T07:16:18.073Z,89.49
2023-01-23T07:18:50.346Z,89.27
2023-01-23T07:21:20.743Z,89.30
2023-01-23T07:23:51.082Z,89.26
2023-01-23T07:26:20.664Z,89.06
2023-01-23T07:28:50.242Z,89.03
2023-01-23T07:31:20.465Z,89.04
2023-01-23T07:33:52.850Z,88.84
2023-01-23T07:36:22.430Z,88.91
2023-01-23T07:38:52.001Z,88.69
2023-01-23T07:41:21.566Z,88.42
2023-01-23T07:43:51.207Z,88.40
2023-01-23T07:46:21.045Z,88.62
2023-01-23T07:48:53.263Z,88.40
2023-01-23T07:51:22.816Z,88.29
2023-01-23T07:53:52.437Z,88.35
2023-01-23T07:56:22.274Z,87.99
2023-01-23T07:58:53.420Z,88.16
2023-01-23T08:01:23.603Z,87.76
2023-01-23T08:03:55.913Z,87.90
2023-01-23T08:06:25.507Z,87.75
2023-01-23T08:08:55.083Z,87.69
2023-01-23T08:11:26.547Z,87.31
2023-01-23T08:13:56.270Z,87.27
2023-01-23T08:16:25.988Z,87.18
2023-01-23T08:18:58.227Z,87.29
2023-01-23T08:21:27.852Z,86.88
2023-01-23T08:23:57.447Z,86.71
2023-01-23T08:26:27.041Z,86.76
2023-01-23T08:28:56.602Z,86.68
2023-01-23T08:31:26.357Z,86.59
2023-01-23T08:33:58.704Z,86.47
2023-01-23T08:36:28.544Z,86.27
2023-01-23T08:38:58.414Z,86.19
2023-01-23T08:41:27.997Z,85.75
2023-01-23T08:43:58.371Z,85.93
2023-01-23T08:46:27.936Z,85.58
2023-01-23T08:49:00.629Z,85.60
2023-01-23T08:51:32.625Z,85.46
2023-01-23T08:54:02.225Z,85.36
2023-01-23T08:56:31.903Z,85.30
2023-01-23T08:59:01.547Z,85.12
2023-01-23T09:01:31.291Z,84.74
2023-01-23T09:04:03.443Z,84.64
2023-01-23T09:06:33.002Z,84.85
2023-01-23T09:09:02.558Z,84.52
2023-01-23T09:11:32.651Z,84.30
2023-01-23T09:14:02.343Z,84.51
2023-01-23T09:16:31.942Z,84.54
2023-01-23T09:19:04.236Z,84.69
2023-01-23T09:21:33.807Z,84.83
2023-01-23T09:24:03.469Z,84.65
2023-01-23T09:26:33.072Z,84.48
2023-01-23T09:29:02.687Z,84.31
2023-01-23T09:31:32.280Z,84.53
2023-01-23T09:34:04.866Z,84.39
2023-01-23T09:36:42.788Z,84.11
2023-01-23T09:39:13.078Z,84.00
2023-01-23T09:41:43.045Z,84.24
2023-01-23T09:44:15.970Z,83.93
2023-01-23T09:46:49.088Z,83.66
2023-01-23T09:49:27.036Z,83.53
2023-01-23T09:51:59.525Z,83.34
2023-01-23T09:54:36.054Z,83.48
2023-01-23T09:57:09.410Z,82.92
2023-01-23T09:59:53.701Z,83.25
2023-01-23T10:02:28.080Z,83.30
2023-01-23T10:05:02.970Z,83.30
2023-01-23T10:07:47.058Z,82.94
2023-01-23T10:10:37.254Z,82.59
2023-01-23T10:13:10.586Z,82.65
2023-01-23T10:16:07.969Z,82.45
2023-01-23T10:18:40.238Z,82.32
2023-01-23T10:21:20.830Z,81.96
2023-01-23T10:23:59.817Z,82.19
2023-01-23T10:26:32.839Z,81.96
2023-01-23T10:29:06.030Z,82.23
2023-01-23T10:31:40.560Z,81.83
2023-01-23T10:34:17.360Z,81.98
2023-01-23T10:37:02.016Z,81.88
2023-01-23T10:39:35.908Z,81.36
2023-01-23T10:42:05.463Z,81.54
2023-01-23T10:44:35.039Z,81.17
2023-01-23T10:47:06.769Z,80.76
2023-01-23T10:49:39.080Z,80.69
2023-01-23T10:52:32.738Z,80.31
2023-01-23T10:55:02.803Z,80.11
2023-01-23T10:57:33.860Z,80.38
2023-01-23T11:00:05.086Z,80.61
2023-01-23T11:02:36.389Z,80.35
2023-01-23T11:05:09.356Z,80.48
2023-01-23T11:07:42.603Z,80.24
2023-01-23T11:10:21.475Z,79.78
2023-01-23T11:12:54.163Z,79.76
2023-01-23T11:15:26.087Z,79.34
2023-01-23T11:17:57.087Z,78.93
2023-01-23T11:20:31.967Z,78.64
2023-01-23T11:23:19.106Z,78.00
2023-01-23T11:25:49.907Z,78.28
2023-01-23T11:28:27.235Z,77.72
2023-01-23T11:31:12.742Z,77.92
2023-01-23T11:33:47.845Z,77.88
2023-01-23T11:36:36.274Z,77.19
2023-01-23T11:39:16.998Z,76.66
2023-01-23T11:41:48.198Z,75.80
2023-01-23T11:44:22.654Z,76.23
2023-01-23T11:47:32.052Z,76.12
2023-01-23T11:50:54.083Z,75.73
2023-01-23T11:53:41.420Z,75.85
2023-01-23T11:56:31.711Z,75.83
2023-01-23T11:59:14.369Z,76.03
2023-01-23T12:02:02.493Z,75.89
2023-01-23T12:04:47.017Z,75.48
2023-01-23T12:07:21.292Z,75.14
2023-01-23T12:09:57.578Z,74.31
2023-01-23T12:12:41.561Z,74.54
2023-01-23T12:15:15.731Z,74.65
2023-01-23T12:17:45.610Z,74.16
2023-01-23T12:20:29.002Z,74.12
2023-01-23T12:23:06.764Z,73.99
2023-01-23T12:25:37.956Z,73.60
2023-01-23T12:28:30.723Z,73.58
2023-01-23T12:31:14.297Z,73.21
2023-01-23T12:34:03.412Z,72.74
2023-01-23T12:37:05.713Z,73.18
2023-01-23T12:39:49.565Z,72.76
2023-01-23T12:42:20.090Z,72.69
2023-01-23T12:44:58.152Z,72.73
2023-01-23T12:47:30.708Z,73.06
2023-01-23T12:50:02.495Z,73.24
2023-01-23T12:52:37.754Z,73.24
2023-01-23T12:55:15.367Z,73.35
2023-01-23T12:57:59.496Z,73.33
2023-01-23T13:00:42.477Z,73.18
2023-01-23T13:03:47.811Z,73.04
2023-01-23T13:06:30.034Z,73.69
2023-01-23T13:09:16.752Z,73.48
2023-01-23T13:11:56.203Z,73.61
2023-01-23T13:14:33.022Z,73.54
2023-01-23T13:17:31.437Z,73.49
2023-01-23T13:20:38.700Z,73.51
2023-01-23T13:23:31.935Z,73.57
2023-01-23T13:26:29.379Z,73.65
2023-01-23T13:29:04.296Z,73.70
2023-01-23T13:31:45.442Z,73.76
2023-01-23T13:34:42.428Z,73.76
2023-01-23T13:37:50.951Z,73.85
2023-01-23T13:40:23.656Z,73.72
2023-01-23T13:42:53.366Z,74.16
2023-01-23T13:45:30.939Z,74.11
2023-01-23T14:22:13.829Z,75.21
2023-01-23T14:24:46.135Z,75.45
2023-01-23T14:27:29.471Z,75.55
2023-01-23T14:30:00.999Z,75.31
2023-01-23T14:32:32.519Z,75.31
2023-01-23T14:35:04.662Z,75.33
2023-01-23T14:37:37.785Z,75.56
2023-01-23T14:40:12.171Z,75.37
2023-01-23T14:42:42.860Z,75.15
2023-01-23T14:45:13.943Z,75.32
2023-01-23T14:47:48.905Z,75.26
2023-01-23T14:50:29.149Z,75.36
2023-01-23T14:53:04.256Z,75.24
2023-01-23T14:55:34.988Z,75.17
2023-01-23T14:58:07.525Z,74.97
2023-01-23T15:00:38.167Z,75.13
2023-01-23T15:03:08.516Z,75.04
2023-01-23T15:05:41.768Z,74.93
2023-01-23T15:08:23.435Z,75.27
2023-01-23T15:10:53.852Z,75.04
2023-01-23T15:13:25.877Z,75.03
2023-01-23T15:15:58.724Z,75.13
2023-01-23T15:18:30.244Z,74.98
2023-01-23T15:21:03.205Z,75.21
2023-01-23T15:23:35.027Z,75.22
2023-01-23T15:26:25.176Z,75.32
2023-01-23T15:28:56.277Z,75.61
2023-01-23T15:31:33.493Z,75.37
2023-01-23T15:34:24.011Z,75.22
2023-01-23T15:36:59.814Z,75.66
2023-01-23T15:39:31.791Z,75.73
2023-01-23T15:42:03.012Z,75.88
2023-01-23T15:44:33.934Z,75.73
2023-01-23T15:47:04.918Z,76.07
2023-01-23T15:49:35.781Z,76.14
2023-01-23T15:52:23.627Z,76.22
2023-01-23T15:54:55.383Z,76.26
2023-01-23T15:57:25.279Z,76.15
2023-01-23T15:59:54.849Z,76.41
2023-01-23T16:02:31.604Z,76.29
2023-01-23T16:05:03.209Z,76.57
2023-01-23T16:07:39.465Z,76.56
2023-01-23T16:10:19.470Z,76.71
2023-01-23T16:12:50.242Z,76.80
2023-01-23T16:15:22.476Z,77.00
2023-01-23T16:17:52.511Z,77.04
2023-01-23T16:20:23.993Z,76.81
2023-01-23T16:22:57.825Z,77.07
2023-01-23T16:25:43.028Z,76.93
2023-01-23T16:28:15.641Z,77.12
2023-01-23T16:30:45.312Z,76.99
2023-01-23T16:33:15.060Z,77.28
2023-01-23T16:35:45.335Z,77.24
2023-01-23T16:38:23.144Z,77.27
2023-01-23T16:40:53.614Z,77.56
2023-01-23T16:43:23.759Z,77.61
2023-01-23T16:45:56.102Z,77.36
2023-01-23T16:48:28.044Z,77.36
2023-01-23T16:51:01.921Z,77.71
2023-01-23T16:53:36.153Z,77.56
2023-01-23T16:56:05.587Z,77.38
2023-01-23T16:58:38.254Z,77.62
2023-01-23T17:01:11.370Z,77.49
2023-01-23T17:03:43.375Z,77.70
2023-01-23T17:06:15.147Z,77.75
2023-01-23T17:08:47.854Z,77.81
2023-01-23T17:11:21.517Z,77.79
2023-01-23T17:13:51.279Z,77.87
2023-01-23T17:16:27.486Z,77.91
2023-01-23T17:18:57.777Z,77.95
2023-01-23T17:21:30.535Z,77.98
2023-01-23T17:24:02.818Z,77.78
2023-01-23T17:26:32.533Z,77.76
2023-01-23T17:29:02.294Z,77.86
2023-01-23T17:31:32.995Z,78.08
2023-01-23T17:34:03.017Z,78.01
2023-01-23T17:36:33.018Z,77.95
2023-01-23T17:39:07.650Z,78.23
2023-01-23T17:41:37.265Z,77.98
2023-01-23T17:44:07.108Z,78.02
2023-01-23T17:46:39.635Z,77.98
2023-01-23T17:49:23.346Z,77.92
2023-01-23T17:51:59.305Z,77.70
2023-01-23T17:54:33.000Z,77.98
2023-01-23T17:57:02.588Z,77.84
2023-01-23T17:59:32.198Z,77.78
2023-01-23T18:02:01.812Z,77.79
2023-01-23T18:04:31.429Z,77.61
2023-01-23T18:07:01.061Z,77.80
2023-01-23T18:09:34.315Z,77.61
2023-01-23T18:12:05.822Z,77.84
2023-01-23T18:14:42.691Z,77.77
2023-01-23T18:17:19.028Z,77.51
2023-01-23T18:19:51.579Z,77.50
2023-01-23T18:22:21.725Z,77.49
2023-01-23T18:24:54.620Z,77.50
2023-01-23T18:27:26.580Z,77.56
2023-01-23T18:30:14.101Z,77.71
2023-01-23T18:32:56.282Z,77.63
2023-01-23T18:35:46.252Z,77.55
2023-01-23T18:38:20.547Z,77.34
2023-01-23T18:41:07.414Z,77.46
2023-01-23T18:43:39.972Z,77.52
2023-01-23T18:46:15.203Z,77.62
2023-01-23T18:48:46.803Z,77.62
2023-01-23T18:51:25.566Z,77.50
2023-01-23T18:54:00.756Z,77.28
2023-01-23T18:56:38.537Z,77.38
2023-01-23T18:59:17.103Z,77.43
2023-01-23T19:01:53.442Z,77.38
2023-01-23T19:04:30.429Z,77.53
2023-01-23T19:07:01.041Z,77.37
2023-01-23T19:09:34.119Z,77.41
2023-01-23T19:12:20.517Z,77.73
2023-01-23T19:15:04.934Z,77.73
2023-01-23T19:17:45.903Z,77.40
2023-01-23T19:20:38.586Z,77.62
2023-01-23T19:23:18.767Z,77.46
2023-01-23T19:25:48.686Z,77.49
2023-01-23T19:28:22.049Z,77.74
2023-01-23T19:30:52.396Z,77.62
2023-01-23T19:33:22.803Z,77.72
2023-01-23T19:35:56.566Z,77.92
2023-01-23T19:38:26.201Z,77.96
2023-01-23T19:40:55.811Z,77.73
2023-01-23T19:43:28.851Z,77.95
2023-01-23T19:45:58.497Z,77.87
2023-01-23T19:48:28.047Z,78.13
2023-01-23T19:50:57.616Z,78.13
2023-01-23T19:53:27.206Z,78.25
2023-01-23T19:56:01.267Z,78.22
2023-01-23T19:58:33.475Z,78.28
2023-01-23T20:01:03.120Z,78.13
2023-01-23T20:03:32.732Z,78.42
2023-01-23T20:06:02.487Z,78.47
2023-01-23T20:08:32.061Z,78.20
2023-01-23T20:11:01.698Z,78.42
2023-01-23T20:13:34.046Z,78.46
2023-01-23T20:16:10.203Z,78.25
2023-01-23T20:18:39.824Z,78.33
2023-01-23T20:21:09.399Z,78.18
2023-01-23T20:23:38.967Z,78.26
2023-01-23T20:26:08.980Z,78.35
2023-01-23T20:28:41.336Z,78.40
2023-01-23T20:31:13.757Z,78.39
2023-01-23T20:33:43.675Z,78.50
2023-01-23T20:36:13.618Z,78.55
2023-01-23T20:38:43.574Z,78.57
2023-01-23T20:41:14.682Z,78.40
2023-01-23T20:43:46.940Z,78.34
2023-01-23T20:46:19.155Z,78.60
2023-01-23T20:48:49.045Z,78.41
2023-01-23T20:51:19.767Z,78.69
2023-01-23T20:53:50.341Z,78.56
2023-01-23T20:56:27.369Z,78.47
2023-01-23T20:59:12.337Z,78.63
2023-01-23T21:01:55.527Z,78.76
2023-01-23T21:04:26.968Z,78.52
2023-01-23T21:06:56.913Z,78.58
2023-01-23T21:09:26.880Z,78.66
2023-01-23T21:11:57.160Z,78.55
2023-01-23T21:14:29.882Z,78.68
2023-01-23T21:16:59.553Z,78.72
2023-01-23T21:19:29.161Z,78.60
2023-01-23T21:21:58.747Z,78.76
2023-01-23T21:24:28.631Z,78.61
2023-01-23T21:26:58.639Z,78.66
2023-01-23T21:29:30.906Z,78.68
2023-01-23T21:32:01.165Z,78.66
2023-01-23T21:34:30.798Z,78.67
2023-01-23T21:37:00.390Z,78.51
2023-01-23T21:39:30.088Z,78.59
2023-01-23T21:41:59.684Z,78.60
2023-01-23T21:44:34.474Z,78.33
2023-01-23T21:47:04.235Z,78.45
2023-01-23T21:49:33.963Z,78.75
2023-01-23T21:52:03.595Z,78.85
2023-01-23T21:54:33.169Z,78.51
2023-01-23T21:57:02.742Z,78.57
2023-01-23T21:59:35.002Z,78.72
2023-01-23T22:02:01.965Z,78.45
2023-01-23T22:04:31.750Z,78.69
2023-01-23T22:07:01.329Z,78.42
2023-01-23T22:09:31.078Z,78.51
2023-01-23T22:12:01.018Z,78.66
2023-01-23T22:14:30.623Z,78.55
2023-01-23T22:17:02.809Z,78.80
2023-01-23T22:19:32.399Z,78.71
2023-01-23T22:22:02.086Z,78.49
2023-01-23T22:24:31.849Z,78.67
2023-01-23T22:27:03.971Z,78.42
2023-01-23T22:29:33.564Z,78.69
2023-01-23T22:32:05.805Z,78.71
2023-01-23T22:34:35.423Z,78.43
2023-01-23T22:37:04.997Z,78.58
2023-01-23T22:39:34.742Z,78.50
2023-01-23T22:42:05.006Z,78.71
2023-01-23T22:44:34.677Z,78.70
2023-01-23T22:47:06.972Z,78.82
2023-01-23T22:49:36.597Z,78.82
2023-01-23T22:52:08.519Z,78.62
2023-01-23T22:54:38.230Z,78.77
2023-01-23T22:57:07.796Z,78.69
2023-01-23T22:59:37.371Z,78.85
2023-01-23T23:02:09.515Z,78.75
2023-01-23T23:04:39.095Z,78.61
2023-01-23T23:07:08.881Z,78.69
2023-01-23T23:09:38.459Z,78.54
2023-01-23T23:12:08.182Z,78.79
2023-01-23T23:14:39.323Z,78.77
2023-01-23T23:17:11.907Z,78.70
2023-01-23T23:19:41.527Z,78.63
2023-01-23T23:22:11.122Z,78.83
2023-01-23T23:24:40.786Z,78.91
2023-01-23T23:27:10.404Z,79.07
2023-01-23T23:29:40.030Z,78.90
2023-01-23T23:32:12.187Z,79.01
2023-01-23T23:34:41.813Z,79.19
2023-01-23T23:37:11.371Z,79.15
2023-01-23T23:39:40.997Z,79.13
2023-01-23T23:42:10.693Z,79.21
2023-01-23T23:44:42.404Z,79.15
2023-01-23T23:47:14.559Z,79.21
2023-01-23T23:49:44.152Z,79.18
2023-01-23T23:52:13.751Z,79.37
2023-01-23T23:54:43.335Z,79.15
2023-01-23T23:57:12.931Z,79.13
2023-01-23T23:59:42.587Z,79.19
